Time;durP1;ratioP1;P1;durP2;ratioP2;P2;SDS_P1;SDS_P2;PMS_P1;PMS_P2;Temp;Humidity;BMP_temperature;BMP_pressure;BME280_temperature;BME280_humidity;BME280_pressure;Samples;Min_cycle;Max_cycle;Signal;HPM_P1;HPM_P2
2024/01/30 00:01:19;;;;;;;14.77;12.37;;;;;;;2.93;100.00;146793.03;5113440;28;20184;-58
2024/01/30 00:03:46;;;;;;;16.63;11.83;;;;;;;3.09;100.00;146833.22;5113524;28;20175;-59
2024/01/30 00:06:13;;;;;;;15.47;11.80;;;;;;;3.01;100.00;146813.13;5113640;28;20184;-58
2024/01/30 00:08:41;;;;;;;13.37;11.97;;;;;;;3.10;100.00;146835.69;5113679;28;20569;-59
2024/01/30 00:11:09;;;;;;;14.90;12.07;;;;;;;3.05;100.00;146824.44;5113532;28;20212;-58
2024/01/30 00:13:36;;;;;;;18.00;12.90;;;;;;;3.19;100.00;146859.56;5113581;28;20180;-58
2024/01/30 00:16:03;;;;;;;18.63;13.00;;;;;;;3.13;100.00;146844.53;5113213;28;20188;-59
2024/01/30 00:18:31;;;;;;;17.93;11.93;;;;;;;3.10;100.00;146836.97;5113131;28;20241;-59
2024/01/30 00:20:58;;;;;;;13.70;12.27;;;;;;;3.06;100.00;146825.66;5113102;28;20574;-58
2024/01/30 00:23:25;;;;;;;16.17;12.30;;;;;;;3.07;100.00;146828.16;5113372;28;20183;-57
2024/01/30 00:25:53;;;;;;;15.57;12.33;;;;;;;3.08;100.00;146830.69;5113035;28;20232;-57
2024/01/30 00:28:21;;;;;;;15.90;13.50;;;;;;;3.14;100.00;146847.00;5113281;28;20179;-59
2024/01/30 00:30:48;;;;;;;15.93;12.90;;;;;;;3.19;100.00;146858.31;5113111;28;20203;-57
2024/01/30 00:33:16;;;;;;;17.90;13.47;;;;;;;3.15;100.00;146848.25;5112909;28;20191;-59
2024/01/30 00:35:43;;;;;;;18.13;13.30;;;;;;;3.13;100.00;146843.28;5112776;28;20653;-58
2024/01/30 00:38:10;;;;;;;22.80;13.30;;;;;;;3.15;100.00;146849.53;5113078;28;20212;-57
2024/01/30 00:40:37;;;;;;;16.43;12.97;;;;;;;3.14;100.00;146847.00;5112760;28;20252;-58
2024/01/30 00:43:05;;;;;;;18.10;13.73;;;;;;;3.27;100.00;146877.19;5112778;28;20226;-60
2024/01/30 00:45:32;;;;;;;18.63;13.40;;;;;;;3.16;100.00;146850.78;5112768;28;20204;-57
2024/01/30 00:47:59;;;;;;;20.43;13.53;;;;;;;3.16;100.00;146850.78;5112956;28;20695;-57
2024/01/30 00:50:27;;;;;;;14.87;13.20;;;;;;;3.32;100.00;146889.72;5113374;28;20207;-58
2024/01/30 00:52:54;;;;;;;17.77;13.40;;;;;;;3.29;100.00;146882.19;5112853;28;20237;-59
2024/01/30 00:55:21;;;;;;;21.10;13.40;;;;;;;3.23;100.00;146868.34;5112422;28;20223;-59
2024/01/30 00:57:48;;;;;;;16.07;13.40;;;;;;;3.23;100.00;146868.34;5112779;28;20694;-58
2024/01/30 01:00:17;;;;;;;14.67;12.53;;;;;;;3.16;100.00;146852.06;5112566;28;20584;-58
2024/01/30 01:02:45;;;;;;;18.50;12.80;;;;;;;3.13;100.00;146844.53;5112736;28;20205;-59
2024/01/30 01:05:12;;;;;;;14.93;12.40;;;;;;;3.18;100.00;146855.84;5112701;28;20575;-58
2024/01/30 01:07:40;;;;;;;15.73;13.10;;;;;;;3.09;100.00;146834.47;5112416;28;20263;-58
2024/01/30 01:10:08;;;;;;;17.47;13.80;;;;;;;3.12;100.00;146842.00;5112226;28;20188;-58
2024/01/30 01:12:35;;;;;;;18.50;12.97;;;;;;;3.06;100.00;146825.66;5112358;28;20230;-58
2024/01/30 01:15:02;;;;;;;16.00;12.80;;;;;;;3.21;100.00;146863.34;5112276;28;20642;-57
2024/01/30 01:17:31;;;;;;;18.00;13.73;;;;;;;3.23;100.00;146869.63;5112167;28;20188;-59
2024/01/30 01:19:58;;;;;;;18.67;13.30;;;;;;;3.23;100.00;146869.63;5112125;28;20187;-58
2024/01/30 01:22:25;;;;;;;24.50;14.53;;;;;;;3.35;100.00;146897.28;5112361;28;20211;-57
2024/01/30 01:24:52;;;;;;;21.13;14.17;;;;;;;3.27;100.00;146877.19;5112525;28;20191;-58
2024/01/30 01:27:19;;;;;;;18.83;13.60;;;;;;;3.27;100.00;146878.41;5112216;28;20191;-58
2024/01/30 01:29:46;;;;;;;16.23;13.40;;;;;;;3.25;100.00;146872.16;5112201;28;20183;-58
2024/01/30 01:32:13;;;;;;;20.87;13.60;;;;;;;3.15;100.00;146849.53;5111980;28;20207;-58
2024/01/30 01:34:42;;;;;;;18.53;13.00;;;;;;;3.15;100.00;146849.53;5112412;28;20625;-58
2024/01/30 01:37:09;;;;;;;20.43;13.00;;;;;;;3.19;100.00;146859.56;5112308;28;20183;-58
2024/01/30 01:39:36;;;;;;;14.83;13.10;;;;;;;3.22;100.00;146867.09;5112416;28;20179;-58
2024/01/30 01:42:04;;;;;;;18.80;14.20;;;;;;;3.10;100.00;146836.97;5112016;28;20236;-59
2024/01/30 01:44:31;;;;;;;17.90;12.93;;;;;;;3.10;100.00;146836.97;5112013;28;20282;-58
2024/01/30 01:46:59;;;;;;;17.13;13.33;;;;;;;2.96;100.00;146800.56;5112224;28;20187;-58
2024/01/30 01:49:28;;;;;;;15.30;12.83;;;;;;;3.18;100.00;146855.84;5112004;28;20256;-59
2024/01/30 01:51:57;;;;;;;19.17;12.80;;;;;;;3.24;100.00;146870.88;5112240;28;20615;-58
2024/01/30 01:54:26;;;;;;;17.80;13.10;;;;;;;3.20;100.00;146862.09;5115643;28;20315;-59
2024/01/30 01:56:54;;;;;;;15.67;12.93;;;;;;;3.27;100.00;146877.19;5116311;28;20183;-59
2024/01/30 01:59:22;;;;;;;14.47;12.63;;;;;;;3.29;100.00;146883.47;5116125;28;20256;-58
2024/01/30 02:01:49;;;;;;;14.43;12.77;;;;;;;3.23;100.00;146868.34;5116629;28;20610;-57
2024/01/30 02:04:17;;;;;;;21.30;13.57;;;;;;;3.16;100.00;146850.78;5116086;28;20568;-59
2024/01/30 02:06:44;;;;;;;20.33;13.07;;;;;;;3.26;100.00;146875.94;5116070;28;20180;-58
2024/01/30 02:09:13;;;;;;;16.17;12.90;;;;;;;3.29;100.00;146882.19;5116058;28;20252;-58
2024/01/30 02:11:40;;;;;;;20.07;12.23;;;;;;;3.07;100.00;146828.16;5115482;28;20588;-57
2024/01/30 02:14:07;;;;;;;18.47;12.03;;;;;;;3.20;100.00;146862.09;5115542;28;20188;-59
2024/01/30 02:16:34;;;;;;;19.10;12.73;;;;;;;3.22;100.00;146865.88;5115656;28;20194;-58
2024/01/30 02:19:01;;;;;;;18.53;11.77;;;;;;;3.19;100.00;146858.31;5115775;28;20186;-58
2024/01/30 02:21:30;;;;;;;18.77;13.00;;;;;;;3.13;100.00;146844.53;5115745;28;20611;-59
2024/01/30 02:23:59;;;;;;;17.03;13.00;;;;;;;3.20;100.00;146860.84;5115479;28;20187;-59
2024/01/30 02:26:26;;;;;;;16.27;11.90;;;;;;;3.17;100.00;146854.56;5115750;28;20183;-58
2024/01/30 02:28:53;;;;;;;17.13;12.30;;;;;;;3.17;100.00;146854.56;5115277;28;20184;-58
2024/01/30 02:31:20;;;;;;;16.10;11.97;;;;;;;3.10;100.00;146835.69;5115183;27;20203;-57
2024/01/30 02:33:47;;;;;;;16.23;12.47;;;;;;;3.28;100.00;146879.66;5115522;28;20703;-59
2024/01/30 02:36:15;;;;;;;18.20;13.03;;;;;;;3.23;100.00;146869.63;5115552;28;20244;-58
2024/01/30 02:38:44;;;;;;;17.20;13.10;;;;;;;3.22;100.00;146867.09;5115102;28;20539;-58
2024/01/30 02:41:11;;;;;;;15.10;12.77;;;;;;;3.19;100.00;146859.56;5115102;28;20565;-58
2024/01/30 02:43:38;;;;;;;16.40;12.77;;;;;;;3.16;100.00;146852.06;5115009;28;20236;-58
2024/01/30 02:46:05;;;;;;;18.13;12.70;;;;;;;3.20;100.00;146862.09;5115727;28;20238;-58
2024/01/30 02:48:32;;;;;;;15.77;12.00;;;;;;;3.14;100.00;146847.00;5114957;28;20188;-58
2024/01/30 02:50:59;;;;;;;17.60;12.47;;;;;;;3.22;100.00;146867.09;5114876;27;20204;-59
2024/01/30 02:53:26;;;;;;;20.60;13.27;;;;;;;3.19;100.00;146858.31;5115550;28;20191;-58
2024/01/30 02:55:55;;;;;;;13.50;12.10;;;;;;;3.17;100.00;146853.31;5114791;28;20260;-58
2024/01/30 02:58:22;;;;;;;14.10;12.67;;;;;;;3.16;100.00;146852.06;5114732;27;20183;-59
2024/01/30 03:00:49;;;;;;;18.23;13.03;;;;;;;3.05;100.00;146824.44;5114781;28;20248;-59
2024/01/30 03:03:16;;;;;;;16.87;12.83;;;;;;;3.16;100.00;146852.06;5115050;28;20195;-59
2024/01/30 03:05:43;;;;;;;15.13;12.60;;;;;;;2.99;100.00;146808.09;5113472;28;20194;-58
2024/01/30 03:08:10;;;;;;;16.93;12.37;;;;;;;3.02;100.00;146816.84;5114876;28;20179;-58
2024/01/30 03:10:37;;;;;;;18.00;13.40;;;;;;;3.10;100.00;146835.69;5114497;28;20240;-57
2024/01/30 03:13:06;;;;;;;14.60;11.87;;;;;;;3.08;100.00;146831.97;5114461;28;20219;-59
2024/01/30 03:15:33;;;;;;;17.10;13.57;;;;;;;2.96;100.00;146801.81;5114541;28;20239;-58
2024/01/30 03:18:00;;;;;;;18.57;13.17;;;;;;;2.84;100.00;146770.41;5114622;28;20183;-58
2024/01/30 03:20:27;;;;;;;20.73;13.20;;;;;;;2.85;100.00;146774.16;5114668;28;20565;-57
2024/01/30 03:22:57;;;;;;;18.23;13.70;;;;;;;2.71;100.00;146740.28;5114305;28;20271;-59
2024/01/30 03:25:24;;;;;;;18.60;12.97;;;;;;;2.66;100.00;143567.56;5114286;28;20607;-58
2024/01/30 03:27:51;;;;;;;19.70;13.47;;;;;;;2.48;100.00;137672.47;5115280;28;20233;-59
2024/01/30 03:30:19;;;;;;;16.93;13.93;;;;;;;2.55;100.00;132750.13;5114156;28;20188;-59
2024/01/30 03:32:46;;;;;;;16.43;13.07;;;;;;;2.51;100.00;130190.50;5114101;28;20199;-58
2024/01/30 03:35:13;;;;;;;19.70;14.03;;;;;;;2.65;100.00;129490.59;5114095;28;20172;-58
2024/01/30 03:37:40;;;;;;;20.97;13.60;;;;;;;2.39;100.00;131654.75;5114327;28;20256;-58
2024/01/30 03:40:08;;;;;;;16.67;13.00;;;;;;;2.42;100.00;130987.03;5114287;28;20183;-59
2024/01/30 03:42:35;;;;;;;17.83;13.00;;;;;;;2.45;100.00;131101.28;5114009;28;20180;-58
2024/01/30 03:45:03;;;;;;;18.67;13.57;;;;;;;2.57;100.00;133620.75;5113858;28;20194;-59
2024/01/30 03:47:31;;;;;;;16.63;12.87;;;;;;;2.55;100.00;134631.06;5114210;28;20236;-58
2024/01/30 03:49:58;;;;;;;16.70;13.80;;;;;;;2.81;100.00;137276.84;5113696;28;20221;-59
2024/01/30 03:52:25;;;;;;;17.83;13.00;;;;;;;2.81;100.00;139588.59;5113960;28;20627;-58
2024/01/30 03:54:52;;;;;;;17.90;13.17;;;;;;;2.83;100.00;141807.72;5113454;28;20231;-58
2024/01/30 03:57:19;;;;;;;16.77;12.50;;;;;;;2.68;100.00;143535.22;5113591;28;20244;-58
2024/01/30 03:59:46;;;;;;;19.67;13.50;;;;;;;2.88;100.00;145067.00;5113542;28;20248;-58
2024/01/30 04:02:13;;;;;;;17.07;12.43;;;;;;;2.95;100.00;146436.41;5114165;28;20591;-57
2024/01/30 04:04:42;;;;;;;19.07;13.03;;;;;;;2.91;100.00;146789.25;5113452;28;20301;-59
2024/01/30 04:07:09;;;;;;;17.80;12.90;;;;;;;2.94;100.00;146796.78;5113625;28;20199;-59
2024/01/30 04:09:36;;;;;;;14.57;12.27;;;;;;;2.94;100.00;146795.50;5113411;28;20194;-59
2024/01/30 04:12:04;;;;;;;18.90;13.03;;;;;;;2.99;100.00;146809.34;5113568;28;20555;-59
2024/01/30 04:14:31;;;;;;;15.27;12.67;;;;;;;2.98;100.00;146806.81;5113278;28;20237;-58
2024/01/30 04:16:58;;;;;;;15.10;12.23;;;;;;;2.99;100.00;146809.34;5113252;28;20608;-62
2024/01/30 04:19:25;;;;;;;17.40;13.13;;;;;;;2.99;100.00;146809.34;5113156;28;20183;-58
2024/01/30 04:21:54;;;;;;;17.60;11.50;;;;;;;2.97;100.00;146804.28;5113163;28;20303;-57
2024/01/30 04:24:21;;;;;;;14.87;12.13;;;;;;;3.03;100.00;146818.13;5113399;28;20618;-58
2024/01/30 04:26:48;;;;;;;15.53;11.93;;;;;;;2.89;100.00;146782.94;5113440;28;20172;-58
2024/01/30 04:29:15;;;;;;;17.13;11.20;;;;;;;3.01;100.00;146814.34;5113271;28;20183;-58
2024/01/30 04:31:42;;;;;;;19.30;12.80;;;;;;;2.93;100.00;146794.25;5112915;28;20215;-59
2024/01/30 04:34:09;;;;;;;15.20;12.37;;;;;;;3.04;100.00;146821.91;5113280;28;20183;-58
2024/01/30 04:36:36;;;;;;;16.23;11.70;;;;;;;2.99;100.00;146808.09;5112874;28;20187;-58
2024/01/30 04:39:05;;;;;;;17.27;11.93;;;;;;;2.99;100.00;146809.34;5113202;28;20183;-60
2024/01/30 04:41:32;;;;;;;16.90;12.07;;;;;;;3.00;100.00;146810.59;5112765;28;20179;-58
2024/01/30 04:43:59;;;;;;;16.97;11.13;;;;;;;3.10;100.00;146836.97;5112683;28;20194;-58
2024/01/30 04:46:26;;;;;;;14.03;11.77;;;;;;;3.04;100.00;146821.91;5112639;28;20180;-59
2024/01/30 04:48:53;;;;;;;15.43;12.00;;;;;;;3.05;100.00;146824.44;5112586;28;20183;-59
2024/01/30 04:51:20;;;;;;;15.33;11.50;;;;;;;3.04;100.00;146821.91;5112828;28;20626;-58
2024/01/30 04:53:47;;;;;;;16.47;12.67;;;;;;;2.93;100.00;146794.25;5112963;28;20698;-59
2024/01/30 04:56:15;;;;;;;12.33;11.07;;;;;;;3.06;100.00;146826.91;5112467;28;20226;-59
2024/01/30 04:58:43;;;;;;;15.20;11.90;;;;;;;3.01;100.00;146813.13;5112852;27;20630;-58
2024/01/30 05:01:10;;;;;;;13.40;10.83;;;;;;;2.85;100.00;146772.91;5112402;28;20187;-58
2024/01/30 05:03:37;;;;;;;14.77;12.17;;;;;;;3.03;100.00;146819.38;5112966;28;20282;-57
2024/01/30 05:06:04;;;;;;;16.07;11.47;;;;;;;3.09;100.00;146834.47;5112706;28;20184;-58
2024/01/30 05:08:31;;;;;;;14.87;11.73;;;;;;;3.06;100.00;146825.66;5112617;28;20264;-58
2024/01/30 05:11:03;;;;;;;15.77;11.50;;;;;;;2.78;100.00;146756.59;5113157;28;20690;-58
2024/01/30 05:13:32;;;;;;;15.50;11.23;;;;;;;2.96;100.00;146800.56;5112195;28;20199;-59
2024/01/30 05:15:59;;;;;;;15.93;11.67;;;;;;;2.87;100.00;146777.94;5112935;28;20191;-59
2024/01/30 05:18:26;;;;;;;19.07;12.23;;;;;;;2.91;100.00;146789.25;5112218;28;20241;-58
2024/01/30 05:20:53;;;;;;;17.07;12.10;;;;;;;2.93;100.00;146794.25;5112486;28;20633;-59
2024/01/30 05:23:20;;;;;;;15.83;10.90;;;;;;;2.87;100.00;146779.22;5112436;28;20600;-59
2024/01/30 05:25:47;;;;;;;13.87;11.23;;;;;;;2.93;100.00;146793.03;5112218;28;20183;-58
2024/01/30 05:28:14;;;;;;;14.53;10.57;;;;;;;2.87;100.00;146777.94;5111694;28;20229;-59
2024/01/30 05:30:42;;;;;;;15.80;11.63;;;;;;;2.76;100.00;146752.81;5112087;28;20192;-59
2024/01/30 05:33:11;;;;;;;16.57;11.60;;;;;;;2.90;100.00;146786.72;5112239;28;20260;-58
2024/01/30 05:35:39;;;;;;;16.50;11.03;;;;;;;2.94;100.00;146795.50;5111993;28;20196;-58
2024/01/30 05:38:06;;;;;;;16.03;10.70;;;;;;;2.88;100.00;146780.47;5112417;28;20622;-59
2024/01/30 05:40:33;;;;;;;11.83;10.60;;;;;;;2.87;100.00;146777.94;5112017;28;20187;-59
2024/01/30 05:43:01;;;;;;;12.90;10.70;;;;;;;3.07;100.00;146828.16;5111904;28;20183;-59
2024/01/30 05:45:28;;;;;;;15.30;11.03;;;;;;;3.00;100.00;146811.88;5112228;28;20699;-60
2024/01/30 05:47:56;;;;;;;16.80;11.47;;;;;;;2.94;100.00;146796.78;5112157;28;20625;-59
2024/01/30 05:50:25;;;;;;;16.57;11.83;;;;;;;2.96;100.00;146801.81;5112137;28;20213;-60
2024/01/30 05:52:52;;;;;;;15.60;11.13;;;;;;;3.00;100.00;146811.88;5111712;28;20260;-59
2024/01/30 05:55:19;;;;;;;11.90;10.57;;;;;;;2.68;100.00;146732.72;5111638;28;20235;-59
2024/01/30 05:57:46;;;;;;;15.80;11.47;;;;;;;2.88;100.00;146781.72;5111805;28;20248;-59
2024/01/30 06:00:14;;;;;;;17.17;10.93;;;;;;;3.02;100.00;146815.59;5111992;28;20634;-58
2024/01/30 06:02:41;;;;;;;15.07;11.73;;;;;;;3.13;100.00;146843.28;5111895;28;20248;-59
2024/01/30 06:05:10;;;;;;;18.57;11.83;;;;;;;3.09;100.00;146834.47;5111877;28;20183;-58
2024/01/30 06:07:37;;;;;;;15.57;11.07;;;;;;;3.17;100.00;146854.56;5111565;28;20187;-59
2024/01/30 06:10:05;;;;;;;13.57;10.73;;;;;;;2.87;100.00;146777.94;5111480;28;20198;-60
2024/01/30 06:12:32;;;;;;;14.13;10.77;;;;;;;3.09;100.00;146834.47;5111695;28;20207;-58
2024/01/30 06:14:59;;;;;;;14.30;10.27;;;;;;;3.14;100.00;146847.00;5111515;28;20187;-57
2024/01/30 06:17:26;;;;;;;11.30;10.20;;;;;;;3.18;100.00;146855.84;5111810;28;20187;-59
2024/01/30 06:19:53;;;;;;;13.87;10.67;;;;;;;3.12;100.00;146840.75;5111651;28;20667;-59
2024/01/30 06:22:22;;;;;;;10.03;9.07;;;;;;;3.14;100.00;146845.78;5111763;28;20616;-58
2024/01/30 06:24:49;;;;;;;10.13;9.17;;;;;;;2.93;100.00;146794.25;5111417;28;20187;-60
2024/01/30 06:27:17;;;;;;;12.07;10.33;;;;;;;3.06;100.00;146825.66;5111366;28;20187;-58
2024/01/30 06:29:44;;;;;;;11.07;9.93;;;;;;;3.14;100.00;146847.00;5111374;28;20220;-58
2024/01/30 06:32:11;;;;;;;14.53;10.00;;;;;;;3.20;100.00;146862.09;5111431;28;20208;-58
2024/01/30 06:34:39;;;;;;;14.50;10.57;;;;;;;3.19;100.00;146859.56;5111151;28;20191;-58
2024/01/30 06:37:06;;;;;;;10.40;9.37;;;;;;;3.27;100.00;146878.41;5111230;28;20191;-59
2024/01/30 06:39:35;;;;;;;13.07;10.07;;;;;;;3.25;100.00;146872.16;5113091;28;20187;-60
2024/01/30 06:42:03;;;;;;;10.77;9.67;;;;;;;3.28;100.00;146880.94;5114797;28;20233;-58
2024/01/30 06:44:30;;;;;;;10.83;9.13;;;;;;;3.32;100.00;146889.72;5114765;28;20252;-59
2024/01/30 06:46:57;;;;;;;12.87;10.10;;;;;;;3.14;100.00;146847.00;5115223;28;20237;-59
2024/01/30 06:49:24;;;;;;;10.57;9.57;;;;;;;3.08;100.00;146831.97;5114951;28;20599;-59
2024/01/30 06:51:51;;;;;;;12.00;9.83;;;;;;;3.25;100.00;146872.16;5114792;28;20666;-58
2024/01/30 06:54:18;;;;;;;10.97;9.60;;;;;;;3.34;100.00;146894.78;5114436;28;20195;-59
2024/01/30 06:56:46;;;;;;;15.57;11.53;;;;;;;3.21;100.00;146864.63;5114860;28;20183;-58
2024/01/30 06:59:13;;;;;;;13.73;9.37;;;;;;;3.18;100.00;146855.84;5115082;28;20622;-58
2024/01/30 07:01:40;;;;;;;12.50;10.03;;;;;;;3.26;100.00;145595.09;5114658;28;20710;-58
2024/01/30 07:04:07;;;;;;;11.43;9.47;;;;;;;3.23;100.00;143224.13;5114391;28;20198;-59
2024/01/30 07:06:35;;;;;;;10.70;9.10;;;;;;;3.28;100.00;142395.25;5114822;27;20268;-59
2024/01/30 07:09:03;;;;;;;13.33;10.20;;;;;;;3.44;100.00;144984.63;5114175;28;20187;-59
2024/01/30 07:11:30;;;;;;;10.77;9.00;;;;;;;3.27;100.00;146877.19;5114113;28;20217;-60
2024/01/30 07:13:58;;;;;;;10.10;9.13;;;;;;;3.20;100.00;146860.84;5114104;28;20210;-59
2024/01/30 07:16:25;;;;;;;10.10;9.07;;;;;;;3.22;100.00;146865.88;5114037;28;20187;-59
2024/01/30 07:18:53;;;;;;;11.57;8.60;;;;;;;3.13;100.00;146844.53;5113996;28;20183;-58
2024/01/30 07:21:21;;;;;;;12.13;8.93;;;;;;;3.44;100.00;146919.88;5114113;28;20207;-60
2024/01/30 07:23:48;;;;;;;10.30;9.07;;;;;;;3.36;100.00;146899.78;5113842;28;20240;-58
2024/01/30 07:26:15;;;;;;;9.63;8.23;;;;;;;3.41;100.00;146912.34;5114573;28;20615;-57
2024/01/30 07:28:43;;;;;;;12.20;9.53;;;;;;;3.36;100.00;146899.78;5114268;28;20618;-58
2024/01/30 07:31:12;;;;;;;9.27;8.47;;;;;;;3.47;100.00;146928.69;5113781;28;20199;-58
2024/01/30 07:33:39;;;;;;;9.53;8.73;;;;;;;3.49;100.00;146932.44;5113771;28;20204;-58
2024/01/30 07:36:07;;;;;;;12.93;9.43;;;;;;;3.67;100.00;146977.69;5114219;28;20184;-60
2024/01/30 07:38:34;;;;;;;9.70;8.83;;;;;;;3.61;100.00;146962.59;5114003;28;20183;-61
2024/01/30 07:41:01;;;;;;;11.93;8.47;;;;;;;3.69;100.00;146983.97;5113817;28;20188;-60
2024/01/30 07:43:28;;;;;;;9.70;8.70;;;;;;;3.76;100.00;146999.06;5113579;28;20209;-60
2024/01/30 07:45:55;;;;;;;10.13;8.90;;;;;;;3.80;100.00;147010.38;5113497;28;20180;-60
2024/01/30 07:48:24;;;;;;;13.97;9.53;;;;;;;3.84;100.00;147020.44;5113631;28;20638;-60
2024/01/30 07:50:51;;;;;;;10.20;8.90;;;;;;;3.98;100.00;147054.38;5112953;28;20218;-60
2024/01/30 07:53:18;;;;;;;9.17;8.27;;;;;;;4.05;100.00;147073.22;5113550;27;20203;-59
2024/01/30 07:55:46;;;;;;;12.67;9.30;;;;;;;4.18;100.00;147104.66;5113239;28;20288;-61
2024/01/30 07:58:13;;;;;;;9.73;7.93;;;;;;;3.94;100.00;147045.59;5113153;28;20183;-60
2024/01/30 08:00:41;;;;;;;15.53;11.93;;;;;;;3.93;100.00;147043.06;5113124;28;20192;-61
2024/01/30 08:03:08;;;;;;;9.40;8.50;;;;;;;3.69;100.00;146982.75;5113420;28;20202;-60
2024/01/30 08:05:37;;;;;;;12.77;8.40;;;;;;;4.09;100.00;147083.28;5113185;27;20214;-59
2024/01/30 08:08:06;;;;;;;8.60;7.70;;;;;;;4.10;100.00;147084.53;5112972;28;20184;-59
2024/01/30 08:10:33;;;;;;;14.30;8.73;;;;;;;4.08;100.00;147080.75;5116261;27;20193;-60
2024/01/30 08:13:00;;;;;;;8.43;7.67;;;;;;;4.14;100.00;147095.84;5116264;27;20342;-59
2024/01/30 08:15:27;;;;;;;10.13;9.00;;;;;;;4.11;100.00;147087.06;5113043;28;20183;-59
2024/01/30 08:17:57;;;;;;;8.30;7.70;;;;;;;4.23;100.00;147115.97;5112800;28;20184;-60
2024/01/30 08:20:24;;;;;;;9.27;8.40;;;;;;;4.05;100.00;147073.22;5113154;28;20538;-60
2024/01/30 08:22:53;;;;;;;9.10;8.20;;;;;;;4.27;100.00;147126.03;5112743;28;20183;-60
2024/01/30 08:25:21;;;;;;;8.90;8.00;;;;;;;4.09;100.00;147082.03;5113510;28;20264;-59
2024/01/30 08:27:48;;;;;;;10.00;7.80;;;;;;;4.10;100.00;147085.81;5113404;28;20273;-59
2024/01/30 08:30:16;;;;;;;9.13;8.23;;;;;;;4.25;100.00;147120.97;5112780;28;20187;-61
2024/01/30 08:32:43;;;;;;;9.33;8.63;;;;;;;4.09;100.00;147083.28;5112681;28;20199;-59
2024/01/30 08:35:13;;;;;;;9.07;8.17;;;;;;;4.25;100.00;147122.25;5112916;27;20186;-59
2024/01/30 08:37:40;;;;;;;8.87;7.97;;;;;;;4.34;100.00;147143.63;5112726;28;20689;-60
2024/01/30 08:40:10;;;;;;;8.60;7.90;;;;;;;4.27;100.00;147126.03;5112824;28;20610;-60
2024/01/30 08:42:37;;;;;;;8.93;8.07;;;;;;;4.35;100.00;147147.41;5113406;28;20695;-60
2024/01/30 08:45:05;;;;;;;9.50;8.40;;;;;;;4.49;100.00;147181.38;5112768;28;20552;-60
2024/01/30 08:47:33;;;;;;;9.60;8.67;;;;;;;4.53;100.00;147191.44;5112689;28;20530;-59
2024/01/30 08:50:00;;;;;;;8.83;7.50;;;;;;;4.52;100.00;147190.16;5112287;28;20592;-62
2024/01/30 08:52:27;;;;;;;8.87;8.07;;;;;;;4.50;100.00;147183.84;5112283;28;20223;-59
2024/01/30 08:54:54;;;;;;;10.20;7.93;;;;;;;4.40;100.00;147158.72;5112256;28;20266;-58
2024/01/30 08:57:23;;;;;;;10.50;7.87;;;;;;;4.41;100.00;147161.25;5112156;28;20236;-59
2024/01/30 08:59:50;;;;;;;12.90;7.33;;;;;;;4.24;100.00;147118.50;5112756;28;20187;-59
2024/01/30 09:02:18;;;;;;;14.57;7.57;;;;;;;4.41;100.00;147162.47;5111436;28;20627;-59
2024/01/30 09:04:45;;;;;;;9.43;7.40;;;;;;;4.34;100.00;147143.63;5112007;28;20251;-59
2024/01/30 09:07:13;;;;;;;11.90;7.53;;;;;;;4.43;100.00;147166.25;5112092;28;20363;-59
2024/01/30 09:09:40;;;;;;;13.27;7.70;;;;;;;4.63;100.00;147215.28;5111958;28;20270;-59
2024/01/30 09:12:11;;;;;;;8.67;7.43;;;;;;;4.74;100.00;147244.25;5112282;28;20191;-59
2024/01/30 09:14:40;;;;;;;7.33;6.73;;;;;;;4.63;100.00;147216.56;5111837;28;20211;-59
2024/01/30 09:17:07;;;;;;;8.00;7.30;;;;;;;4.73;100.00;147241.72;5112270;28;20553;-59
2024/01/30 09:19:35;;;;;;;9.20;7.53;;;;;;;4.79;100.00;147256.84;5112863;28;20261;-60
2024/01/30 09:22:02;;;;;;;7.87;7.17;;;;;;;4.88;100.00;147279.47;5112058;28;20188;-62
2024/01/30 09:24:29;;;;;;;8.13;7.23;;;;;;;5.12;100.00;147337.34;5111962;28;20179;-61
2024/01/30 09:26:56;;;;;;;9.60;6.93;;;;;;;5.20;100.00;147357.47;5112060;28;20187;-61
2024/01/30 09:29:23;;;;;;;8.50;6.17;;;;;;;5.34;100.00;147392.72;5108294;28;20248;-61
2024/01/30 09:31:51;;;;;;;6.87;6.37;;;;;;;5.50;100.00;147433.00;5111562;28;20183;-60
2024/01/30 09:34:18;;;;;;;6.67;6.00;;;;;;;4.71;100.00;147236.69;5111559;28;20274;-61
2024/01/30 09:36:46;;;;;;;6.30;5.90;;;;;;;5.12;100.00;147337.34;5111770;28;20276;-61
2024/01/30 09:39:14;;;;;;;6.50;5.97;;;;;;;4.98;100.00;147303.38;5111721;28;20198;-62
2024/01/30 09:41:48;;;;;;;7.43;6.83;;;;;;;5.25;100.00;147371.34;5112041;28;20714;-62
2024/01/30 09:44:17;;;;;;;9.50;6.20;;;;;;;5.14;100.00;147342.34;5111599;28;20179;-60
2024/01/30 09:46:48;;;;;;;8.83;5.77;;;;;;;5.37;100.00;147401.53;5111450;28;20240;-62
2024/01/30 09:49:18;;;;;;;6.03;5.63;;;;;;;5.39;100.00;147406.53;5111777;28;20274;-62
2024/01/30 09:51:46;;;;;;;5.07;4.67;;;;;;;5.07;100.00;147326.03;5111978;28;20261;-62
2024/01/30 09:54:15;;;;;;;7.53;6.67;;;;;;;5.40;100.00;147409.06;5111670;28;20207;-64
2024/01/30 09:56:42;;;;;;;6.33;5.53;;;;;;;5.21;100.00;147361.28;5112032;28;20178;-65
2024/01/30 09:59:10;;;;;;;5.63;5.27;;;;;;;4.99;100.00;147307.16;5111989;28;20212;-64
2024/01/30 10:01:38;;;;;;;15.63;7.83;;;;;;;5.14;100.00;147343.63;5112139;28;20550;-65
2024/01/30 10:04:07;;;;;;;8.33;7.27;;;;;;;4.95;100.00;147295.84;5111872;28;20183;-67
2024/01/30 10:06:36;;;;;;;5.93;5.53;;;;;;;5.04;100.00;147319.75;5111946;28;20183;-64
2024/01/30 10:09:03;;;;;;;7.50;6.80;;;;;;;5.34;100.00;147392.72;5111930;28;20331;-64
2024/01/30 10:11:30;;;;;;;5.93;5.57;;;;;;;5.40;100.00;147407.81;5112032;28;20210;-64
2024/01/30 10:13:57;;;;;;;12.27;7.03;;;;;;;5.31;100.00;147386.41;5112727;28;20272;-67
2024/01/30 10:16:24;;;;;;;9.63;6.90;;;;;;;5.39;100.00;147405.28;5115783;28;20248;-66
2024/01/30 10:18:51;;;;;;;7.70;6.77;;;;;;;5.61;100.00;147460.69;5115154;28;20565;-65
2024/01/30 10:21:19;;;;;;;7.30;6.80;;;;;;;5.68;100.00;147478.34;5115147;28;20237;-66
2024/01/30 10:23:48;;;;;;;6.80;6.30;;;;;;;5.58;100.00;147453.13;5115561;28;20232;-65
2024/01/30 10:26:17;;;;;;;7.00;6.30;;;;;;;5.80;100.00;147508.53;5115512;28;20643;-65
2024/01/30 10:28:44;;;;;;;7.00;6.40;;;;;;;5.49;100.00;147431.75;5115315;28;20206;-65
2024/01/30 10:31:11;;;;;;;7.17;6.13;;;;;;;5.70;100.00;147483.34;5115247;28;20245;-65
2024/01/30 10:33:38;;;;;;;6.67;6.00;;;;;;;5.52;100.00;147439.28;5115136;28;20211;-65
2024/01/30 10:36:07;;;;;;;6.80;6.10;;;;;;;5.68;100.00;147478.34;5115121;28;20179;-66
2024/01/30 10:38:34;;;;;;;9.40;6.67;;;;;;;5.88;100.00;147528.72;5115160;28;20199;-65
2024/01/30 10:41:03;;;;;;;7.00;6.40;;;;;;;5.68;100.00;147478.34;5115084;28;20736;-66
2024/01/30 10:43:33;;;;;;;7.17;6.43;;;;;;;5.26;100.00;147372.59;5115180;28;20638;-65
2024/01/30 10:46:08;;;;;;;7.13;6.50;;;;;;;5.55;100.00;147445.59;5115019;28;20183;-65
2024/01/30 10:48:42;;;;;;;6.97;6.37;;;;;;;5.91;100.00;147535.00;5115035;28;20186;-65
2024/01/30 10:51:10;;;;;;;6.73;6.23;;;;;;;5.87;100.00;147526.19;5114938;28;20183;-65
2024/01/30 10:53:38;;;;;;;7.83;6.33;;;;;;;5.67;100.00;147475.81;5115921;28;20199;-64
2024/01/30 10:56:07;;;;;;;7.43;6.80;;;;;;;5.45;100.00;147420.41;5114723;28;20643;-65
2024/01/30 10:58:34;;;;;;;6.63;6.13;;;;;;;5.86;100.00;147522.34;5114658;28;20282;-65
2024/01/30 11:01:03;;;;;;;7.57;6.83;;;;;;;5.78;100.00;147502.22;5114282;28;20191;-65
2024/01/30 11:03:31;;;;;;;9.77;6.47;;;;;;;5.92;100.00;147537.53;5115337;28;20187;-65
2024/01/30 11:06:02;;;;;;;7.03;6.43;;;;;;;5.98;100.00;147553.88;5114333;28;20184;-64
2024/01/30 11:08:32;;;;;;;6.33;5.83;;;;;;;5.86;100.00;147523.66;5114755;28;20619;-64
2024/01/30 11:11:00;;;;;;;6.43;5.97;;;;;;;5.97;100.00;147551.41;5114625;28;20183;-65
2024/01/30 11:13:30;;;;;;;7.37;6.23;;;;;;;5.95;100.00;147545.09;5114849;28;20187;-65
2024/01/30 11:16:02;;;;;;;7.07;6.37;;;;;;;6.04;100.00;147567.75;5114368;28;20187;-64